KBPT/BPT METAR and TAF weather

Enter ICAO airport designator
Station Type Date Time Source
KBPT METAR 2021/09/23 23:53 UTC NOAA

KBPT 232353Z 00000KT 10SM CLR 22/15 A3002 RMK AO2 SLP166 T02220150 10278 20222 58002


Station Type Date Time Source
KBPT Decoded METAR 2021/09/23 23:53 UTC NOAA

SOUTHEAST TEXAS RGNL AIRPORT, TX, United States (KBPT) 29-95N 094-08W 5M
Sep 23, 2021 - 07:53 PM EDT / 2021.09.23 2353 UTC
Wind: Calm:0
Visibility: 10 mile(s):0
Sky conditions: clear
Temperature: 72.0 F (22.2 C)
Dew Point: 59.0 F (15.0 C)
Relative Humidity: 63%
Pressure (altimeter): 30.02 in. Hg (1016 hPa)
Pressure tendency: 0.01 inches (0.2 hPa) lower than three hours ago
ob: KBPT 232353Z 00000KT 10SM CLR 22/15 A3002 RMK AO2 SLP166 T02220150 10278 20222 58002
cycle: 0

Station Type Date Time Source
KBPT TAF 2021/09/23 18:22 UTC NOAA

TAF KBPT 231720Z 2318/2418 06009KT P6SM SKC
FM240000 VRB05KT P6SM SKC

Example: see airport list